Abbotsford Airport
CYXX : now visible

Airfield :











YOU CAN JOIN US ON...

 
LOGIN :

Register | Disclaimer

   EN    FR    IT 

 









Legend :    VFR   Marginal VFR   IFR   Intensive IFR   Very Intensive IFR
Visi :
Ceiling :
>= 8 km
>= 3000ft
5 to 8 km
1000 to 3000 ft
1500m to 5 km
500 to 1000 ft
800 to 1500m
200 to 500 ft
< 800m
< 200 ft
Symbols :   Thunderstorms  Fog  Heavy snow  Heavy precipitations  Wind > 20 kt






- Airport Elevation : 195 ft
- IATA code : YXX


CYXX - Abbotsford

CURRENT METAR :
  • 211700Z 02005KT 340V060 30SM FEW062 FEW130 SCT170 BKN180 BKN250 12/07 A2987 RMK SC1AC1AC3AS3CS1 SC TR SLP116

EXPIRED METARs :
  • 211600Z 04006KT 30SM FEW065 SCT130 BKN160 BKN250 11/07 A2988 RMK SC1AC4AC2CI1 SC TR SLP121
  • 211500Z 02008KT 30SM FEW065 FEW085 BKN110 BKN130 10/07 A2989 RMK SC1AC2AC3AC2 SC TR SLP126

TAF TAF CYXX
Valid from the 21 at 18:00 until the 22 at 18:00 UTC


211738Z 2118/2218 04008KT P6SM FEW070 BKN150 BKN250
BECMG 2118/2120 05012G22KT
FM212100 05015G25KT P6SM SCT080 BKN140
FM212300 05012G22KT P6SM -RA OVC070
BECMG 2123/2201 12010KT
FM220300 12010KT 6SM -RA BR SCT020 OVC040
TEMPO 2203/2212 3SM RA BR BKN010 OVC030
FM221200 24006KT P6SM SCT030 BKN080
TEMPO 2212/2218 P6SM -SHRA BKN020 OVC050 RMK NXT FCST BY 220000Z
CZVR FIR / North America



MET'MAP, your aeronautical weather chart ! - Copyright ORBIFLY December 2007 - Disclaimer

ORBIFLY MET'MAP TEAM :

Programming & Development : Alexandra Zaïnal
Concept & original design : Baudouin d'Aumeries
Assistance for programming : Marc-Olivier Méhu
Technical & hardware support : Manuel Goepfert

Contact : metmap@orbifly.com




SOURCES & CREDITS :

   NOAA       Earth
Advisory